createdAt,value
2023-01-31T00:24:02.507Z,-2.25
2023-01-31T00:26:32.318Z,-2.06
2023-01-31T00:29:01.450Z,-2.03
2023-01-31T00:31:31.897Z,-2.00
2023-01-31T00:34:00.121Z,-1.99
2023-01-31T00:36:30.829Z,-1.95
2023-01-31T00:39:00.473Z,-1.92
2023-01-31T00:41:29.909Z,-1.89
2023-01-31T00:44:00.637Z,-1.86
2023-01-31T00:46:29.292Z,-1.87
2023-01-31T00:48:57.293Z,-1.87
2023-01-31T00:51:26.810Z,-1.85
2023-01-31T00:53:54.861Z,-1.83
2023-01-31T00:56:23.629Z,-1.82
2023-01-31T00:58:52.563Z,-1.82
2023-01-31T01:01:27.403Z,-1.82
2023-01-31T01:03:56.189Z,-1.84
2023-01-31T01:06:24.259Z,-1.86
2023-01-31T01:08:53.146Z,-1.85
2023-01-31T01:11:26.135Z,-1.83
2023-01-31T01:13:54.224Z,-1.83
2023-01-31T01:16:34.323Z,-1.82
2023-01-31T01:19:05.781Z,-1.82
2023-01-31T01:21:39.444Z,-1.81
2023-01-31T01:24:11.509Z,-1.81
2023-01-31T01:26:40.722Z,-1.81
2023-01-31T01:29:08.836Z,-1.81
2023-01-31T01:31:39.262Z,-1.81
2023-01-31T01:34:09.542Z,-1.79
2023-01-31T01:36:39.796Z,-1.76
2023-01-31T01:39:11.642Z,-1.75
2023-01-31T01:41:39.624Z,-1.75
2023-01-31T01:44:46.970Z,-1.75
2023-01-31T01:47:19.131Z,-1.75
2023-01-31T01:49:53.842Z,-1.75
2023-01-31T01:52:22.755Z,-1.75
2023-01-31T01:54:53.942Z,-1.75
2023-01-31T01:57:26.637Z,-1.73
2023-01-31T02:00:00.903Z,-1.71
2023-01-31T02:02:29.937Z,-1.69
2023-01-31T02:04:57.880Z,-1.66
2023-01-31T02:07:26.728Z,-1.63
2023-01-31T02:10:02.678Z,-1.61
2023-01-31T02:12:30.897Z,-1.61
2023-01-31T02:15:00.562Z,-1.58
2023-01-31T02:17:29.621Z,-1.55
2023-01-31T02:20:36.964Z,-1.57
2023-01-31T02:23:24.929Z,-1.57
2023-01-31T02:26:17.772Z,-1.55
2023-01-31T02:29:12.634Z,-1.54
2023-01-31T02:31:59.292Z,-1.53
2023-01-31T02:34:34.068Z,-1.50
2023-01-31T02:37:20.227Z,-1.49
2023-01-31T02:40:06.403Z,-1.47
2023-01-31T02:43:01.475Z,-1.47
2023-01-31T02:45:59.309Z,-1.50
2023-01-31T02:48:46.645Z,-1.53
2023-01-31T02:51:17.344Z,-1.53
2023-01-31T02:54:08.536Z,-1.52
2023-01-31T02:56:37.196Z,-1.49
2023-01-31T02:59:22.053Z,-1.47
2023-01-31T03:01:56.203Z,-1.45
2023-01-31T03:04:24.209Z,-1.43
2023-01-31T03:07:00.393Z,-1.46
2023-01-31T03:09:40.580Z,-1.50
2023-01-31T03:12:33.584Z,-1.53
2023-01-31T03:15:15.277Z,-1.52
2023-01-31T03:17:58.694Z,-1.51
2023-01-31T03:20:32.755Z,-1.50
2023-01-31T03:23:03.952Z,-1.51
2023-01-31T03:25:33.417Z,-1.51
2023-01-31T03:28:06.494Z,-1.53
2023-01-31T03:30:42.235Z,-1.54
2023-01-31T03:33:17.193Z,-1.56
2023-01-31T03:35:49.273Z,-1.57
2023-01-31T03:38:17.854Z,-1.56
2023-01-31T03:40:57.843Z,-1.53
2023-01-31T03:43:34.735Z,-1.54
2023-01-31T03:46:08.267Z,-1.54
2023-01-31T03:48:39.263Z,-1.54
2023-01-31T03:51:08.913Z,-1.54
2023-01-31T03:53:40.023Z,-1.53
2023-01-31T03:56:13.836Z,-1.51
2023-01-31T03:58:44.842Z,-1.49
2023-01-31T04:01:12.958Z,-1.47
2023-01-31T04:03:43.174Z,-1.46
2023-01-31T04:06:12.176Z,-1.44
2023-01-31T04:08:40.420Z,-1.42
2023-01-31T04:11:11.595Z,-1.41
2023-01-31T04:13:41.292Z,-1.41
2023-01-31T04:16:09.642Z,-1.41
2023-01-31T04:18:38.835Z,-1.40
2023-01-31T04:21:07.279Z,-1.39
2023-01-31T04:23:35.226Z,-1.38
2023-01-31T04:26:03.184Z,-1.38
2023-01-31T04:28:32.103Z,-1.38
2023-01-31T04:30:59.979Z,-1.38
2023-01-31T04:33:27.939Z,-1.37
2023-01-31T04:35:56.037Z,-1.36
2023-01-31T04:38:24.147Z,-1.32
2023-01-31T04:40:54.572Z,-1.30
2023-01-31T04:43:22.498Z,-1.28
2023-01-31T04:45:50.403Z,-1.28
2023-01-31T04:48:18.300Z,-1.28
2023-01-31T04:50:46.308Z,-1.27
2023-01-31T04:53:14.193Z,-1.28
2023-01-31T04:55:42.087Z,-1.24
2023-01-31T04:58:10.242Z,-1.21
2023-01-31T05:00:38.395Z,-1.18
2023-01-31T05:03:06.559Z,-1.16
2023-01-31T05:05:36.356Z,-1.16
2023-01-31T05:08:05.621Z,-1.16
2023-01-31T05:10:34.410Z,-1.16
2023-01-31T05:13:02.426Z,-1.15
2023-01-31T05:15:32.775Z,-1.14
2023-01-31T05:18:03.430Z,-1.13
2023-01-31T05:20:38.400Z,-1.10
2023-01-31T05:23:06.856Z,-1.08
2023-01-31T05:25:36.078Z,-1.06
2023-01-31T05:28:04.819Z,-1.05
2023-01-31T05:30:33.319Z,-1.06
2023-01-31T05:33:01.747Z,-1.09
2023-01-31T06:27:23.507Z,-0.84
2023-01-31T06:29:51.777Z,-0.61
2023-01-31T06:32:19.967Z,-0.57
2023-01-31T06:49:21.396Z,0.17
2023-01-31T06:51:53.103Z,0.31
2023-01-31T06:54:20.998Z,0.27
2023-01-31T06:56:49.059Z,0.20
2023-01-31T06:59:17.292Z,0.15
2023-01-31T07:01:45.382Z,0.10
2023-01-31T07:04:13.721Z,0.07
2023-01-31T07:06:41.545Z,0.07
2023-01-31T07:09:09.488Z,0.08
2023-01-31T07:11:38.444Z,0.08
2023-01-31T07:14:09.785Z,0.06
2023-01-31T07:16:41.052Z,0.05
2023-01-31T07:19:08.936Z,0.04
2023-01-31T07:21:37.051Z,0.02
2023-01-31T07:24:05.263Z,0.02
2023-01-31T07:26:33.600Z,0.04
2023-01-31T07:29:01.634Z,0.05
2023-01-31T07:31:30.083Z,0.05
2023-01-31T07:33:58.002Z,0.05
2023-01-31T07:36:26.797Z,0.06
2023-01-31T07:38:56.038Z,0.08
2023-01-31T07:41:24.509Z,0.11
2023-01-31T07:43:52.433Z,0.14
2023-01-31T07:46:20.988Z,0.18
2023-01-31T07:48:49.766Z,0.28
2023-01-31T07:51:18.807Z,0.41
2023-01-31T07:53:46.873Z,0.55
2023-01-31T07:56:16.524Z,0.69
2023-01-31T07:58:45.612Z,0.81
2023-01-31T08:01:36.827Z,0.91
2023-01-31T08:04:19.869Z,1.03
2023-01-31T08:06:48.770Z,1.13
2023-01-31T08:09:16.624Z,1.21
2023-01-31T08:11:46.089Z,1.27
2023-01-31T08:14:14.260Z,1.34
2023-01-31T08:16:42.141Z,1.43
2023-01-31T08:19:10.076Z,1.50
2023-01-31T08:21:38.066Z,1.54
2023-01-31T08:24:06.242Z,1.55
2023-01-31T08:26:34.505Z,1.54
2023-01-31T08:29:02.321Z,1.53
2023-01-31T08:31:30.507Z,1.50
2023-01-31T08:33:58.630Z,1.48
2023-01-31T08:36:29.502Z,1.48
2023-01-31T08:38:58.014Z,1.47
2023-01-31T08:41:26.789Z,1.44
2023-01-31T08:43:58.069Z,1.44
2023-01-31T08:46:31.496Z,1.44
2023-01-31T08:49:00.734Z,1.48
2023-01-31T08:51:29.084Z,1.51
2023-01-31T08:53:58.219Z,1.56
2023-01-31T08:56:27.877Z,1.62
2023-01-31T08:58:57.298Z,1.68
2023-01-31T09:01:26.165Z,1.71
2023-01-31T09:03:57.090Z,1.74
2023-01-31T09:06:27.102Z,1.75
2023-01-31T09:09:00.101Z,1.75
2023-01-31T09:11:30.354Z,1.78
2023-01-31T09:13:59.065Z,1.81
2023-01-31T09:16:27.196Z,1.87
2023-01-31T09:18:56.307Z,1.92
2023-01-31T09:21:24.448Z,1.97
2023-01-31T09:23:57.394Z,2.00
2023-01-31T09:26:25.310Z,2.01
2023-01-31T09:28:53.399Z,2.03
2023-01-31T09:31:21.622Z,2.07
2023-01-31T09:33:49.799Z,2.12
2023-01-31T09:36:20.647Z,2.17
2023-01-31T09:38:49.152Z,2.23
2023-01-31T09:41:19.960Z,2.25
2023-01-31T09:43:50.873Z,2.27
2023-01-31T09:46:19.802Z,2.24
2023-01-31T09:48:51.203Z,2.27
2023-01-31T09:51:19.891Z,2.32
2023-01-31T09:53:47.899Z,2.38
2023-01-31T09:56:32.135Z,2.40
2023-01-31T09:59:12.929Z,2.37
2023-01-31T10:01:59.298Z,2.36
2023-01-31T10:04:44.792Z,2.38
2023-01-31T10:07:16.249Z,2.40
2023-01-31T10:09:46.805Z,2.42
2023-01-31T10:12:17.945Z,2.43
2023-01-31T10:14:50.303Z,2.42
2023-01-31T10:17:28.027Z,2.41
2023-01-31T10:20:05.950Z,2.41
2023-01-31T10:22:46.765Z,2.40
2023-01-31T10:25:51.592Z,2.38
2023-01-31T10:28:23.748Z,2.37
2023-01-31T10:31:06.752Z,2.36
2023-01-31T10:33:43.866Z,2.33
2023-01-31T10:36:19.613Z,2.31
2023-01-31T10:39:14.675Z,2.29
2023-01-31T10:42:03.813Z,2.32
2023-01-31T10:44:54.940Z,2.36
2023-01-31T10:47:33.136Z,2.39
2023-01-31T10:50:11.820Z,2.40
2023-01-31T10:52:53.899Z,2.38
2023-01-31T10:55:46.298Z,2.35
2023-01-31T10:58:16.534Z,2.31
2023-01-31T11:00:46.932Z,2.28
2023-01-31T11:03:15.164Z,2.25
2023-01-31T11:05:52.119Z,2.24
2023-01-31T11:08:26.724Z,2.23
2023-01-31T11:10:55.483Z,2.20
2023-01-31T11:13:23.686Z,2.12
2023-01-31T11:15:55.547Z,2.03
2023-01-31T11:18:30.929Z,2.00
2023-01-31T11:20:59.867Z,1.97
2023-01-31T11:23:29.615Z,1.94
2023-01-31T11:25:57.793Z,1.93
2023-01-31T11:28:35.890Z,1.88
2023-01-31T11:31:08.762Z,1.81
2023-01-31T11:33:47.644Z,1.76
2023-01-31T11:36:17.457Z,1.75
2023-01-31T11:38:46.146Z,1.74
2023-01-31T11:41:27.982Z,1.72
2023-01-31T11:44:10.423Z,1.72
2023-01-31T11:46:51.228Z,1.70
2023-01-31T11:49:40.672Z,1.69
2023-01-31T12:05:13.945Z,2.39
2023-01-31T12:07:50.339Z,2.49
2023-01-31T12:10:41.561Z,2.43
2023-01-31T12:13:19.817Z,2.42
2023-01-31T12:16:14.548Z,2.39
2023-01-31T12:18:55.552Z,2.40
2023-01-31T12:21:23.398Z,2.43
2023-01-31T12:23:57.939Z,2.46
2023-01-31T12:26:41.965Z,2.43
2023-01-31T12:29:27.234Z,2.37
2023-01-31T12:32:28.308Z,2.29
2023-01-31T12:35:08.902Z,2.19
2023-01-31T12:37:58.039Z,2.15
2023-01-31T12:40:39.020Z,2.13
2023-01-31T12:43:32.431Z,2.15
2023-01-31T12:46:13.047Z,2.16
2023-01-31T12:48:47.793Z,2.15
2023-01-31T12:51:20.730Z,2.16
2023-01-31T12:53:55.131Z,2.20
2023-01-31T12:56:42.016Z,2.23
2023-01-31T12:59:42.227Z,2.27
2023-01-31T13:02:11.873Z,2.32
2023-01-31T13:04:47.601Z,2.34
2023-01-31T13:07:39.044Z,2.32
2023-01-31T13:10:14.884Z,2.30
2023-01-31T13:12:42.799Z,2.28
2023-01-31T13:15:42.478Z,2.28
2023-01-31T13:18:10.539Z,2.25
2023-01-31T13:20:45.854Z,2.26
2023-01-31T13:23:23.533Z,2.28
2023-01-31T13:25:55.009Z,2.32
2023-01-31T13:28:25.583Z,2.34
2023-01-31T13:30:59.124Z,2.33
2023-01-31T13:33:37.099Z,2.34
2023-01-31T13:36:57.617Z,2.34
2023-01-31T13:39:55.292Z,2.35
2023-01-31T13:42:23.339Z,2.34
